Time;durP1;ratioP1;P1;durP2;ratioP2;P2;SDS_P1;SDS_P2;PMS_P1;PMS_P2;Temp;Humidity;BMP_temperature;BMP_pressure;BME280_temperature;BME280_humidity;BME280_pressure;Samples;Min_cycle;Max_cycle;Signal;HPM_P1;HPM_P2
2023/09/15 00:00:25;;;;;;;0.05;0.05;;;18.60;99.90;;;;;;5061831;28;20230;-76
2023/09/15 00:02:55;;;;;;;0.22;0.22;;;18.60;99.90;;;;;;5061611;28;20371;-76
2023/09/15 00:05:21;;;;;;;0.28;0.28;;;18.60;99.90;;;;;;5063421;28;20402;-75
2023/09/15 00:07:47;;;;;;;0.40;0.40;;;18.70;99.90;;;;;;5039819;28;20324;-81
2023/09/15 00:10:14;;;;;;;0.08;0.08;;;18.70;99.90;;;;;;5046370;28;20590;-77
2023/09/15 00:12:44;;;;;;;0.00;0.00;;;18.40;99.90;;;;;;5063781;28;20020;-77
2023/09/15 00:15:11;;;;;;;0.00;0.00;;;18.70;99.90;;;;;;5045808;28;20044;-83
2023/09/15 00:17:40;;;;;;;0.38;0.38;;;18.70;99.90;;;;;;5045745;28;20134;-80
2023/09/15 00:20:16;;;;;;;0.35;0.32;;;18.60;99.90;;;;;;5048323;28;20075;-76
2023/09/15 00:22:49;;;;;;;0.38;0.38;;;18.60;99.90;;;;;;5061661;28;20483;-76
2023/09/15 00:25:25;;;;;;;0.20;0.20;;;18.50;99.90;;;;;;5062128;28;20028;-76
2023/09/15 00:27:53;;;;;;;0.52;0.52;;;18.10;99.90;;;;;;5060606;28;20519;-76
2023/09/15 00:30:24;;;;;;;2.28;1.85;;;18.50;99.90;;;;;;5059965;28;20471;-76
2023/09/15 00:32:51;;;;;;;0.10;0.10;;;18.40;99.90;;;;;;5059894;28;20025;-77
2023/09/15 00:35:19;;;;;;;0.00;0.00;;;18.40;99.90;;;;;;5065643;28;20112;-76
2023/09/15 00:37:46;;;;;;;0.95;0.90;;;18.30;99.90;;;;;;5064776;28;20017;-77
2023/09/15 00:40:17;;;;;;;0.00;0.00;;;18.30;99.90;;;;;;5067290;28;20080;-76
2023/09/15 00:42:45;;;;;;;0.60;0.47;;;18.70;99.90;;;;;;5045832;28;20047;-76
2023/09/15 00:45:14;;;;;;;0.08;0.08;;;18.20;99.90;;;;;;5067597;28;20033;-78
2023/09/15 00:47:43;;;;;;;1.08;0.98;;;18.30;99.90;;;;;;5050711;28;20039;-77
2023/09/15 00:50:16;;;;;;;0.10;0.10;;;18.30;99.90;;;;;;5034463;28;20395;-77
2023/09/15 00:52:52;;;;;;;0.00;0.00;;;18.20;99.90;;;;;;5051984;28;20371;-78
2023/09/15 00:55:24;;;;;;;0.68;0.68;;;18.30;99.90;;;;;;5069766;28;20550;-78
2023/09/15 00:57:52;;;;;;;0.30;0.30;;;18.30;99.90;;;;;;5068478;28;20021;-78
2023/09/15 01:00:19;;;;;;;0.20;0.20;;;18.30;99.90;;;;;;5066511;28;20189;-77
2023/09/15 01:02:46;;;;;;;0.05;0.05;;;18.30;99.90;;;;;;5063780;28;20021;-78
2023/09/15 01:05:22;;;;;;;0.00;0.00;;;18.40;99.90;;;;;;5069128;28;20028;-78
2023/09/15 01:07:52;;;;;;;0.10;0.10;;;18.40;99.90;;;;;;5069753;28;20017;-82
2023/09/15 01:10:22;;;;;;;5.80;5.40;;;18.50;99.90;;;;;;5044089;28;20337;-77
2023/09/15 01:12:52;;;;;;;0.65;0.65;;;18.00;99.90;;;;;;5064088;28;20074;-78
2023/09/15 01:15:21;;;;;;;6.82;6.43;;;18.40;99.90;;;;;;5046225;28;20602;-78
2023/09/15 01:18:24;;;;;;;0.32;0.32;;;18.40;99.90;;;;;;5062664;28;20017;-77
2023/09/15 01:21:16;;;;;;;2.10;1.95;;;18.40;99.90;;;;;;5053177;28;20414;-77
2023/09/15 01:24:19;;;;;;;0.20;0.20;;;18.40;99.90;;;;;;4990811;28;20314;-81
2023/09/15 01:27:28;;;;;;;0.85;0.85;;;18.40;99.90;;;;;;4986277;28;20092;-78
2023/09/15 01:29:56;;;;;;;0.57;0.57;;;18.30;99.90;;;;;;4951930;29;20044;-77
2023/09/15 01:32:22;;;;;;;0.10;0.10;;;18.30;99.90;;;;;;4926883;29;20429;-77
2023/09/15 01:34:50;;;;;;;0.10;0.10;;;18.30;99.90;;;;;;4929891;29;20628;-77
2023/09/15 01:37:18;;;;;;;0.00;0.00;;;18.40;99.90;;;;;;4950674;29;20019;-77
2023/09/15 01:39:43;;;;;;;1.98;1.85;;;18.30;99.90;;;;;;4950221;29;20129;-81
2023/09/15 01:42:10;;;;;;;19.17;10.15;;;18.30;99.90;;;;;;4951543;29;20576;-78
2023/09/15 01:44:35;;;;;;;12.10;9.30;;;18.30;99.90;;;;;;4935050;29;20441;-77
2023/09/15 01:47:02;;;;;;;1.50;1.45;;;18.30;99.90;;;;;;4927712;29;20485;-77
2023/09/15 01:49:29;;;;;;;1.58;1.48;;;18.30;99.90;;;;;;4935577;29;20114;-77
2023/09/15 01:51:57;;;;;;;16.65;3.20;;;18.30;99.90;;;;;;4952152;29;20039;-77
2023/09/15 01:54:26;;;;;;;2.58;1.63;;;19.40;99.90;;;;;;4952246;29;20032;-78
2023/09/15 01:56:51;;;;;;;0.10;0.10;;;18.20;99.90;;;;;;4951098;29;20313;-78
2023/09/15 01:59:17;;;;;;;0.20;0.20;;;18.20;99.90;;;;;;4948400;29;20059;-77
2023/09/15 02:01:45;;;;;;;0.43;0.43;;;18.20;99.90;;;;;;5008078;28;20061;-78
2023/09/15 02:04:11;;;;;;;0.10;0.10;;;18.20;99.90;;;;;;4992950;28;20258;-78
2023/09/15 02:06:39;;;;;;;0.00;0.00;;;18.20;99.90;;;;;;5047283;28;20459;-77
2023/09/15 02:09:05;;;;;;;0.25;0.25;;;18.20;99.90;;;;;;5063671;28;20619;-77
2023/09/15 02:11:32;;;;;;;0.30;0.30;;;18.20;99.90;;;;;;5067515;28;20046;-77
2023/09/15 02:13:58;;;;;;;0.00;0.00;;;18.20;99.90;;;;;;5054322;28;20028;-77
2023/09/15 02:16:28;;;;;;;0.90;0.85;;;18.20;99.90;;;;;;5073453;28;20052;-79
2023/09/15 02:18:54;;;;;;;0.10;0.10;;;18.30;99.90;;;;;;5072012;28;20065;-77
2023/09/15 02:21:20;;;;;;;0.03;0.03;;;18.30;99.90;;;;;;5053963;28;20016;-77
2023/09/15 02:23:47;;;;;;;0.10;0.10;;;18.30;99.90;;;;;;5066801;28;20051;-78
2023/09/15 02:26:13;;;;;;;0.20;0.20;;;18.30;99.90;;;;;;5071573;28;20401;-78
2023/09/15 02:28:38;;;;;;;0.10;0.10;;;18.30;99.90;;;;;;5068659;28;20040;-77
2023/09/15 02:31:05;;;;;;;0.00;0.00;;;18.30;99.90;;;;;;5068469;28;20023;-78
2023/09/15 02:33:35;;;;;;;0.05;0.05;;;;;;;;;;5063494;28;20044;-77
2023/09/15 02:36:10;;;;;;;0.10;0.10;;;18.20;99.90;;;;;;5052861;28;20100;-78
2023/09/15 02:38:36;;;;;;;0.10;0.10;;;18.30;99.90;;;;;;5066318;28;20094;-78
2023/09/15 02:41:03;;;;;;;0.10;0.10;;;18.20;99.90;;;;;;5074779;28;20013;-82
2023/09/15 02:43:29;;;;;;;0.10;0.10;;;18.30;99.90;;;;;;5072658;28;20333;-78
2023/09/15 02:46:02;;;;;;;0.00;0.00;;;18.30;99.90;;;;;;5073975;28;20309;-78
2023/09/15 02:48:28;;;;;;;0.30;0.30;;;18.30;99.90;;;;;;5072254;28;20021;-77
2023/09/15 02:50:54;;;;;;;0.15;0.15;;;18.20;99.90;;;;;;5067318;28;20054;-78
2023/09/15 02:53:20;;;;;;;0.10;0.10;;;18.20;99.90;;;;;;5083248;28;20017;-77
2023/09/15 02:55:59;;;;;;;0.38;0.38;;;18.20;99.90;;;;;;5050033;28;20120;-78
2023/09/15 02:58:27;;;;;;;0.20;0.20;;;18.10;99.90;;;;;;5061857;28;20028;-76
2023/09/15 03:00:53;;;;;;;1.75;1.65;;;18.20;99.90;;;;;;5044015;28;20174;-76
2023/09/15 03:03:20;;;;;;;2.47;2.28;;;18.40;99.90;;;;;;5062999;28;20429;-79
2023/09/15 03:05:46;;;;;;;0.20;0.20;;;18.20;99.90;;;;;;5065750;28;20025;-75
2023/09/15 03:08:14;;;;;;;0.00;0.00;;;18.20;99.90;;;;;;5065427;28;20025;-76
2023/09/15 03:10:40;;;;;;;0.00;0.00;;;18.20;99.90;;;;;;5062858;28;20078;-76
2023/09/15 03:13:06;;;;;;;6.03;1.55;;;18.20;99.90;;;;;;5066227;28;20029;-80
2023/09/15 03:15:33;;;;;;;1.65;1.55;;;18.30;99.90;;;;;;5048939;28;20547;-75
2023/09/15 03:17:59;;;;;;;0.10;0.10;;;17.30;99.90;;;;;;5044868;28;20044;-77
2023/09/15 03:20:24;;;;;;;0.38;0.38;;;18.20;99.90;;;;;;5068279;28;20035;-75
2023/09/15 03:22:51;;;;;;;0.05;0.05;;;18.10;99.90;;;;;;5069412;28;20478;-78
2023/09/15 03:25:18;;;;;;;0.00;0.00;;;18.10;99.90;;;;;;5069226;28;20221;-76
2023/09/15 03:27:45;;;;;;;0.00;0.00;;;18.00;99.90;;;;;;5068968;28;20051;-79
2023/09/15 03:30:11;;;;;;;2.35;2.25;;;17.90;99.90;;;;;;5068172;28;20521;-76
2023/09/15 03:32:38;;;;;;;0.10;0.10;;;16.30;99.90;;;;;;5067660;28;20221;-78
2023/09/15 03:35:07;;;;;;;1.02;0.93;;;17.90;99.90;;;;;;5070876;28;20017;-78
2023/09/15 03:37:33;;;;;;;0.75;0.75;;;17.90;99.90;;;;;;5069443;28;20470;-77
2023/09/15 03:39:59;;;;;;;1.58;1.55;;;17.80;99.90;;;;;;5068948;28;20036;-76
2023/09/15 03:42:27;;;;;;;0.30;0.30;;;17.80;99.90;;;;;;5068611;28;20025;-76
2023/09/15 03:44:53;;;;;;;0.00;0.00;;;17.70;99.90;;;;;;5070403;28;20020;-76
2023/09/15 03:47:18;;;;;;;0.50;0.50;;;17.70;99.90;;;;;;5068180;28;20055;-76
2023/09/15 03:49:44;;;;;;;0.00;0.00;;;17.70;99.90;;;;;;5067430;28;20048;-77
2023/09/15 03:52:10;;;;;;;0.00;0.00;;;;;;;;;;5062129;28;20690;-77
2023/09/15 03:54:37;;;;;;;0.13;0.13;;;17.70;99.90;;;;;;5068662;28;20111;-77
2023/09/15 03:57:04;;;;;;;0.30;0.30;;;17.60;99.90;;;;;;5062592;28;20032;-79
2023/09/15 03:59:30;;;;;;;0.00;0.00;;;17.60;99.90;;;;;;5049302;28;20231;-76
2023/09/15 04:01:57;;;;;;;0.00;0.00;;;;;;;;;;5050456;28;20106;-76
2023/09/15 04:04:23;;;;;;;0.00;0.00;;;17.40;99.90;;;;;;5067046;28;20045;-77
2023/09/15 04:06:49;;;;;;;0.45;0.45;;;;;;;;;;5048100;28;20040;-76
2023/09/15 04:09:15;;;;;;;0.00;0.00;;;17.30;99.90;;;;;;5049979;28;20024;-76
2023/09/15 04:11:41;;;;;;;0.00;0.00;;;17.20;99.90;;;;;;5066605;28;20020;-77
2023/09/15 04:14:09;;;;;;;0.10;0.10;;;17.00;99.90;;;;;;5044485;28;20035;-80
2023/09/15 04:16:37;;;;;;;0.10;0.10;;;17.00;99.90;;;;;;5068764;28;20016;-75
2023/09/15 04:19:04;;;;;;;0.10;0.10;;;16.90;99.90;;;;;;5067970;28;20032;-83
2023/09/15 04:21:31;;;;;;;0.00;0.00;;;16.80;99.90;;;;;;5068279;28;20024;-76
2023/09/15 04:23:57;;;;;;;0.00;0.00;;;16.80;99.90;;;;;;5067902;28;20501;-75
2023/09/15 04:26:22;;;;;;;0.60;0.60;;;16.70;99.90;;;;;;5066235;28;20020;-76
2023/09/15 04:28:48;;;;;;;0.05;0.05;;;16.70;99.90;;;;;;5030928;28;20068;-79
2023/09/15 04:31:14;;;;;;;0.00;0.00;;;;;;;;;;5065654;28;20150;-75
2023/09/15 04:33:40;;;;;;;0.55;0.55;;;16.60;99.90;;;;;;5067338;28;20017;-79
2023/09/15 04:36:06;;;;;;;0.00;0.00;;;16.60;99.90;;;;;;5061681;28;20102;-86
2023/09/15 04:38:32;;;;;;;0.00;0.00;;;16.60;99.90;;;;;;5064397;28;20102;-79
2023/09/15 04:40:58;;;;;;;0.13;0.13;;;16.60;99.90;;;;;;5079240;28;20031;-75
2023/09/15 04:43:24;;;;;;;0.10;0.10;;;16.60;99.90;;;;;;5050489;28;20025;-80
2023/09/15 04:45:50;;;;;;;0.20;0.20;;;16.70;99.90;;;;;;5067245;28;20035;-77
2023/09/15 04:48:16;;;;;;;0.10;0.10;;;16.80;99.90;;;;;;5047401;28;20020;-76
2023/09/15 04:50:42;;;;;;;0.10;0.10;;;16.90;99.90;;;;;;5066426;28;20355;-77
2023/09/15 04:53:08;;;;;;;0.10;0.10;;;16.90;99.90;;;;;;5063124;28;20484;-75
2023/09/15 04:55:35;;;;;;;0.00;0.00;;;17.00;99.90;;;;;;5074735;28;20035;-76
2023/09/15 04:58:01;;;;;;;0.00;0.00;;;17.10;99.90;;;;;;5081419;28;20340;-76
2023/09/15 05:00:27;;;;;;;0.00;0.00;;;17.00;99.90;;;;;;5032522;28;20131;-76
2023/09/15 05:02:56;;;;;;;0.00;0.00;;;17.10;99.90;;;;;;5049288;28;20025;-77
2023/09/15 05:05:21;;;;;;;0.03;0.03;;;17.10;99.90;;;;;;5077440;28;20029;-78
2023/09/15 05:07:48;;;;;;;0.20;0.20;;;17.10;99.90;;;;;;5044891;28;20023;-78
2023/09/15 05:10:15;;;;;;;0.30;0.30;;;17.10;99.90;;;;;;5062281;28;20421;-78
2023/09/15 05:12:41;;;;;;;6.93;5.32;;;17.10;99.90;;;;;;5058459;28;20486;-78
2023/09/15 05:15:09;;;;;;;0.00;0.00;;;17.10;99.90;;;;;;5076474;28;20033;-77
2023/09/15 05:17:35;;;;;;;0.00;0.00;;;14.40;99.90;;;;;;5028022;28;20033;-75
2023/09/15 05:20:00;;;;;;;0.00;0.00;;;17.20;99.90;;;;;;5041989;28;20039;-78
2023/09/15 05:22:27;;;;;;;0.00;0.00;;;17.40;99.90;;;;;;5080317;28;20025;-78
2023/09/15 05:24:53;;;;;;;0.20;0.20;;;17.40;99.90;;;;;;5066261;28;20104;-78
2023/09/15 05:27:18;;;;;;;47.75;2.08;;;17.50;99.90;;;;;;5063856;28;20032;-78
2023/09/15 05:29:45;;;;;;;0.00;0.00;;;17.50;99.90;;;;;;5059326;28;20055;-78
2023/09/15 05:32:10;;;;;;;0.00;0.00;;;17.60;99.90;;;;;;5078710;28;20531;-77
2023/09/15 05:34:37;;;;;;;0.68;0.68;;;17.60;99.90;;;;;;5065622;28;20084;-78
2023/09/15 05:37:03;;;;;;;0.00;0.00;;;17.60;99.90;;;;;;5062870;28;20028;-82
2023/09/15 05:39:31;;;;;;;0.15;0.15;;;18.20;99.90;;;;;;5065064;28;20032;-78
2023/09/15 05:41:57;;;;;;;0.10;0.10;;;17.50;99.90;;;;;;5066770;28;20017;-82
2023/09/15 05:44:22;;;;;;;0.47;0.47;;;17.50;99.90;;;;;;5063757;28;20029;-75
2023/09/15 05:46:48;;;;;;;0.30;0.30;;;17.40;99.90;;;;;;5063600;28;20150;-75
2023/09/15 05:49:14;;;;;;;0.10;0.10;;;17.40;99.90;;;;;;5045383;28;20513;-78
2023/09/15 05:51:41;;;;;;;0.20;0.20;;;17.50;99.90;;;;;;5078123;28;20032;-78
2023/09/15 05:54:08;;;;;;;0.00;0.00;;;17.50;99.90;;;;;;5065601;28;20029;-76
2023/09/15 05:56:34;;;;;;;0.68;0.68;;;17.50;99.90;;;;;;5065895;28;20016;-76
2023/09/15 05:59:02;;;;;;;0.45;0.45;;;17.50;99.90;;;;;;5064921;28;20032;-76
2023/09/15 06:01:27;;;;;;;0.00;0.00;;;18.20;99.90;;;;;;5064662;28;20538;-76
2023/09/15 06:03:53;;;;;;;0.00;0.00;;;17.60;99.90;;;;;;5061986;28;20086;-76
2023/09/15 06:06:21;;;;;;;0.40;0.40;;;17.70;99.90;;;;;;5065469;28;20029;-77
2023/09/15 06:08:46;;;;;;;0.10;0.10;;;17.70;99.90;;;;;;5050344;28;20027;-77
2023/09/15 06:11:12;;;;;;;0.73;0.73;;;17.80;99.90;;;;;;5065513;28;20021;-77
2023/09/15 06:13:39;;;;;;;0.00;0.00;;;17.90;99.90;;;;;;5050258;28;20021;-76
2023/09/15 06:16:09;;;;;;;0.43;0.43;;;17.90;99.90;;;;;;5067185;28;20035;-77
2023/09/15 06:18:35;;;;;;;0.30;0.30;;;18.00;99.90;;;;;;5069181;28;20056;-76
2023/09/15 06:21:01;;;;;;;0.85;0.85;;;18.10;99.90;;;;;;5048111;28;20064;-77
2023/09/15 06:23:28;;;;;;;0.10;0.10;;;18.20;99.90;;;;;;5067881;28;20062;-82
2023/09/15 06:25:55;;;;;;;0.00;0.00;;;18.30;99.90;;;;;;5067611;28;20103;-76
2023/09/15 06:28:21;;;;;;;0.10;0.10;;;18.40;99.90;;;;;;5080225;28;20127;-79
2023/09/15 06:30:47;;;;;;;0.00;0.00;;;18.40;99.90;;;;;;5043216;28;20116;-76
2023/09/15 06:33:12;;;;;;;0.00;0.00;;;18.50;99.90;;;;;;5063490;28;20074;-76
2023/09/15 06:35:38;;;;;;;0.40;0.40;;;18.70;99.90;;;;;;5063479;28;20099;-80
2023/09/15 06:38:06;;;;;;;0.00;0.00;;;18.80;99.90;;;;;;5063264;28;20032;-76
2023/09/15 06:40:35;;;;;;;0.10;0.10;;;18.90;99.90;;;;;;5076209;28;20321;-78
2023/09/15 06:43:04;;;;;;;7.20;6.88;;;19.10;99.90;;;;;;5048397;28;20099;-77
2023/09/15 06:45:31;;;;;;;1.38;1.00;;;19.20;99.90;;;;;;5065870;28;20100;-80
2023/09/15 06:47:59;;;;;;;0.00;0.00;;;19.40;99.90;;;;;;5068030;28;20370;-77
2023/09/15 06:50:24;;;;;;;0.05;0.05;;;19.60;99.90;;;;;;5063638;28;20173;-76
2023/09/15 06:52:50;;;;;;;0.10;0.10;;;21.70;99.90;;;;;;5081635;28;20096;-80
2023/09/15 06:55:16;;;;;;;0.00;0.00;;;19.80;99.90;;;;;;5047853;28;20032;-75
2023/09/15 06:57:42;;;;;;;0.03;0.03;;;20.00;99.90;;;;;;5066038;28;20034;-78
2023/09/15 07:00:09;;;;;;;0.10;0.10;;;20.20;99.90;;;;;;5064636;28;20028;-77
2023/09/15 07:02:35;;;;;;;0.00;0.00;;;20.40;99.90;;;;;;5064964;28;20600;-76
2023/09/15 07:05:02;;;;;;;1.35;0.73;;;20.70;99.90;;;;;;5064975;28;20459;-76
2023/09/15 07:07:28;;;;;;;0.38;0.38;;;21.00;99.90;;;;;;5064912;28;20103;-76
2023/09/15 07:09:54;;;;;;;0.28;0.28;;;21.20;99.90;;;;;;5064712;28;20104;-79
2023/09/15 07:12:20;;;;;;;0.00;0.00;;;21.50;99.90;;;;;;5066046;28;20020;-76
2023/09/15 07:14:49;;;;;;;0.35;0.35;;;21.20;99.90;;;;;;5062187;28;20013;-78
2023/09/15 07:17:18;;;;;;;3.00;2.80;;;21.50;99.90;;;;;;5046789;28;20517;-76
2023/09/15 07:19:46;;;;;;;0.30;0.30;;;21.70;99.90;;;;;;5065336;28;20402;-77
2023/09/15 07:22:12;;;;;;;0.80;0.80;;;21.70;99.90;;;;;;5065426;28;20040;-77
2023/09/15 07:24:41;;;;;;;0.32;0.32;;;21.70;99.90;;;;;;5047266;28;20059;-83
2023/09/15 07:27:08;;;;;;;0.00;0.00;;;21.90;99.90;;;;;;5064329;28;20344;-81
2023/09/15 07:29:35;;;;;;;5.70;1.55;;;21.80;99.90;;;;;;5072591;28;20008;-83
2023/09/15 07:32:01;;;;;;;0.00;0.00;;;21.80;99.90;;;;;;5074043;28;20043;-77
2023/09/15 07:34:29;;;;;;;0.10;0.10;;;21.80;99.90;;;;;;5057138;28;20036;-79
2023/09/15 07:37:02;;;;;;;0.10;0.10;;;21.90;99.90;;;;;;5067975;28;20233;-76
2023/09/15 07:39:29;;;;;;;0.55;0.55;;;21.70;99.90;;;;;;5074401;28;20037;-81
2023/09/15 07:41:56;;;;;;;0.10;0.10;;;21.60;99.90;;;;;;5076902;28;20013;-93
2023/09/15 07:44:21;;;;;;;0.00;0.00;;;21.50;99.90;;;;;;5033037;28;20024;-77
2023/09/15 07:46:48;;;;;;;0.85;0.85;;;21.90;99.90;;;;;;5086098;28;20502;-80
2023/09/15 07:49:16;;;;;;;0.77;0.77;;;22.20;99.90;;;;;;5076484;28;20245;-78
2023/09/15 07:51:47;;;;;;;0.08;0.08;;;22.20;99.90;;;;;;5060227;28;20199;-77
2023/09/15 07:54:16;;;;;;;0.10;0.10;;;22.30;99.90;;;;;;5063277;28;20108;-81
2023/09/15 07:56:47;;;;;;;0.10;0.10;;;19.60;99.90;;;;;;5026097;28;20548;-76
2023/09/15 07:59:14;;;;;;;0.00;0.00;;;22.30;99.90;;;;;;5063276;28;20072;-76
2023/09/15 08:01:40;;;;;;;3.97;1.85;;;22.20;99.90;;;;;;5077396;28;20659;-76
2023/09/15 08:04:06;;;;;;;0.00;0.00;;;22.20;99.90;;;;;;5080340;28;20025;-76
2023/09/15 08:06:32;;;;;;;0.00;0.00;;;22.50;99.90;;;;;;5074550;28;20035;-76
2023/09/15 08:08:58;;;;;;;0.10;0.10;;;22.20;99.90;;;;;;5040006;28;20582;-76
2023/09/15 08:11:25;;;;;;;0.03;0.03;;;22.30;99.90;;;;;;5065746;28;20033;-76
2023/09/15 08:14:04;;;;;;;0.00;0.00;;;22.40;99.90;;;;;;5071232;28;20099;-85
2023/09/15 08:16:30;;;;;;;0.00;0.00;;;24.50;99.90;;;;;;5061841;28;20050;-76
2023/09/15 08:19:01;;;;;;;0.52;0.52;;;22.40;99.90;;;;;;5071752;28;20055;-76
2023/09/15 08:21:28;;;;;;;0.30;0.30;;;22.50;99.90;;;;;;5062789;28;20036;-76
2023/09/15 08:23:55;;;;;;;0.30;0.30;;;22.40;99.90;;;;;;5060990;28;20017;-75
2023/09/15 08:26:21;;;;;;;0.32;0.32;;;22.50;99.90;;;;;;5047373;28;20020;-75
2023/09/15 08:28:47;;;;;;;0.08;0.08;;;22.50;99.90;;;;;;5063904;28;20083;-77
2023/09/15 08:31:14;;;;;;;0.00;0.00;;;22.60;99.90;;;;;;5045983;28;20541;-79
2023/09/15 08:33:39;;;;;;;0.00;0.00;;;22.40;99.90;;;;;;5045224;28;20037;-78
2023/09/15 08:36:06;;;;;;;0.00;0.00;;;22.60;99.90;;;;;;5075561;28;20063;-78
2023/09/15 08:38:32;;;;;;;0.00;0.00;;;;;;;;;;5068623;28;20024;-78
2023/09/15 08:41:22;;;;;;;0.20;0.20;;;22.70;99.90;;;;;;5053159;28;20035;-78
2023/09/15 08:43:48;;;;;;;0.15;0.15;;;22.90;99.90;;;;;;5058096;28;20024;-80
2023/09/15 08:46:16;;;;;;;0.32;0.32;;;22.80;99.90;;;;;;5053917;28;20068;-81
2023/09/15 08:48:50;;;;;;;0.00;0.00;;;23.00;99.90;;;;;;5058910;28;20127;-77
2023/09/15 08:51:25;;;;;;;5.03;3.65;;;23.40;99.90;;;;;;5053746;28;20017;-77
2023/09/15 08:53:56;;;;;;;0.00;0.00;;;23.10;99.90;;;;;;5063094;28;20024;-78
2023/09/15 08:56:23;;;;;;;0.50;0.50;;;23.40;99.90;;;;;;5043521;28;20025;-78
2023/09/15 08:58:49;;;;;;;0.10;0.10;;;24.10;99.90;;;;;;5062790;28;20542;-78
2023/09/15 09:01:18;;;;;;;0.00;0.00;;;23.90;99.90;;;;;;5062810;28;20032;-78
2023/09/15 09:03:44;;;;;;;0.10;0.10;;;24.00;99.90;;;;;;5062090;28;20217;-78
2023/09/15 09:06:12;;;;;;;0.30;0.30;;;24.00;99.90;;;;;;5044194;28;20056;-78
2023/09/15 09:08:41;;;;;;;0.40;0.40;;;23.50;99.90;;;;;;5060719;28;20025;-77
2023/09/15 09:11:07;;;;;;;0.00;0.00;;;23.70;99.90;;;;;;5060531;28;20049;-78
2023/09/15 09:13:35;;;;;;;0.10;0.10;;;23.90;99.90;;;;;;5049557;28;20039;-80
2023/09/15 09:16:10;;;;;;;0.00;0.00;;;24.50;99.90;;;;;;5042843;28;20024;-77
2023/09/15 09:18:36;;;;;;;3.10;0.65;;;24.90;99.90;;;;;;5061200;28;20702;-78
2023/09/15 09:21:04;;;;;;;5.07;4.75;;;25.20;99.90;;;;;;5072534;28;20029;-75
2023/09/15 09:23:30;;;;;;;0.22;0.15;;;25.30;99.90;;;;;;5039958;28;20025;-76
2023/09/15 09:25:59;;;;;;;0.00;0.00;;;25.20;99.90;;;;;;5061755;28;20025;-76
2023/09/15 09:28:29;;;;;;;1.00;0.50;;;25.30;99.90;;;;;;5061091;28;20236;-76
2023/09/15 09:30:56;;;;;;;0.43;0.43;;;25.60;99.90;;;;;;5063150;28;20371;-76
2023/09/15 09:33:23;;;;;;;0.00;0.00;;;25.80;99.90;;;;;;5063284;28;20025;-76
2023/09/15 09:35:52;;;;;;;1.50;0.60;;;25.90;99.90;;;;;;5061792;28;20037;-75
2023/09/15 09:38:18;;;;;;;0.43;0.25;;;25.90;99.90;;;;;;5044285;28;20249;-76
2023/09/15 09:40:45;;;;;;;0.65;0.47;;;25.90;99.90;;;;;;5061000;28;20032;-75
2023/09/15 09:43:15;;;;;;;0.95;0.73;;;25.90;99.90;;;;;;5064389;28;20017;-81
2023/09/15 09:45:49;;;;;;;0.10;0.10;;;25.90;99.90;;;;;;5067485;28;20209;-76
2023/09/15 09:48:15;;;;;;;0.00;0.00;;;25.90;99.90;;;;;;5047763;28;20037;-76
2023/09/15 09:50:41;;;;;;;1.83;0.55;;;26.00;99.90;;;;;;5047701;28;20306;-76
2023/09/15 09:53:09;;;;;;;2.13;1.55;;;25.90;99.90;;;;;;5062214;28;20102;-76
2023/09/15 09:55:38;;;;;;;0.00;0.00;;;25.60;99.90;;;;;;5064051;28;20313;-76
2023/09/15 09:58:05;;;;;;;0.00;0.00;;;25.70;99.90;;;;;;5065110;28;20036;-75
2023/09/15 10:00:33;;;;;;;0.00;0.00;;;25.70;99.90;;;;;;5045729;28;20032;-76
2023/09/15 10:03:04;;;;;;;0.30;0.30;;;25.90;99.90;;;;;;5062787;28;20442;-77
2023/09/15 10:05:31;;;;;;;0.00;0.00;;;25.90;99.90;;;;;;5072341;28;20032;-76
2023/09/15 10:07:58;;;;;;;0.00;0.00;;;26.00;99.90;;;;;;5046460;28;20043;-76
2023/09/15 10:10:25;;;;;;;0.00;0.00;;;26.10;99.80;;;;;;5065932;28;20016;-76
2023/09/15 10:12:58;;;;;;;0.00;0.00;;;26.00;99.40;;;;;;5074023;28;20016;-76
2023/09/15 10:15:27;;;;;;;0.75;0.38;;;26.10;99.90;;;;;;5071207;28;20017;-76
2023/09/15 10:17:55;;;;;;;0.20;0.20;;;26.20;99.60;;;;;;5046383;28;20027;-76
2023/09/15 10:20:25;;;;;;;0.20;0.20;;;26.30;99.00;;;;;;5063383;28;20394;-76
2023/09/15 10:22:51;;;;;;;0.10;0.10;;;26.10;99.90;;;;;;5081766;28;20532;-75
2023/09/15 10:25:17;;;;;;;0.35;0.25;;;26.40;99.50;;;;;;5044655;28;20119;-78
2023/09/15 10:27:46;;;;;;;0.00;0.00;;;26.70;99.10;;;;;;5063240;28;20045;-76
2023/09/15 10:30:17;;;;;;;0.13;0.13;;;26.90;98.90;;;;;;5076465;28;20017;-78
2023/09/15 10:32:44;;;;;;;1.05;0.95;;;26.90;98.40;;;;;;5067879;28;20077;-76
2023/09/15 10:35:11;;;;;;;0.32;0.22;;;27.10;98.50;;;;;;5062561;28;20021;-77
2023/09/15 10:37:47;;;;;;;0.00;0.00;;;25.70;97.10;;;;;;5055370;28;20271;-79
2023/09/15 10:40:13;;;;;;;2.28;1.02;;;27.50;97.90;;;;;;5068291;28;20337;-76
2023/09/15 10:42:51;;;;;;;0.00;0.00;;;27.60;97.30;;;;;;5062732;28;20136;-77
2023/09/15 10:45:19;;;;;;;0.35;0.35;;;27.30;97.40;;;;;;5071677;28;20044;-79
2023/09/15 10:47:56;;;;;;;0.00;0.00;;;29.70;98.10;;;;;;5070107;28;20032;-75
2023/09/15 10:50:37;;;;;;;0.17;0.13;;;26.80;97.50;;;;;;5064788;28;20029;-77
2023/09/15 10:53:10;;;;;;;0.00;0.00;;;26.80;97.40;;;;;;5063359;28;20111;-76
2023/09/15 10:55:37;;;;;;;;;;;26.70;97.80;;;;;;5062890;28;20032;-76
2023/09/15 10:58:05;;;;;;;0.00;0.00;;;27.00;97.30;;;;;;5062837;28;19940;-76
2023/09/15 11:00:32;;;;;;;0.30;0.30;;;27.40;97.30;;;;;;5063771;28;20033;-77
2023/09/15 11:02:59;;;;;;;0.55;0.40;;;28.50;97.30;;;;;;5061043;28;20048;-76
2023/09/15 11:05:28;;;;;;;0.00;0.00;;;28.00;96.20;;;;;;5027672;28;20482;-76
2023/09/15 11:08:01;;;;;;;0.00;0.00;;;28.20;95.50;;;;;;5042974;28;20066;-76
2023/09/15 11:10:31;;;;;;;0.00;0.00;;;28.10;95.70;;;;;;5060366;28;20047;-76
2023/09/15 11:12:59;;;;;;;2.78;0.45;;;25.10;94.10;;;;;;5042091;28;20326;-76
2023/09/15 11:15:27;;;;;;;0.00;0.00;;;27.80;95.50;;;;;;5061133;28;20577;-76
2023/09/15 11:17:53;;;;;;;0.08;0.05;;;27.60;95.60;;;;;;5041880;28;20111;-76
2023/09/15 11:20:19;;;;;;;0.00;0.00;;;27.40;95.90;;;;;;5042719;28;20043;-76
2023/09/15 11:22:45;;;;;;;0.57;0.30;;;27.30;95.80;;;;;;5043516;28;20416;-76
2023/09/15 11:25:11;;;;;;;0.55;0.50;;;27.50;95.90;;;;;;5042525;28;20029;-76
2023/09/15 11:27:36;;;;;;;0.00;0.00;;;27.60;95.70;;;;;;5077006;28;20044;-76
2023/09/15 11:30:04;;;;;;;0.10;0.10;;;27.50;95.50;;;;;;5060644;28;20199;-76
2023/09/15 11:32:31;;;;;;;0.15;0.13;;;27.50;95.20;;;;;;5041953;28;20115;-76
2023/09/15 11:34:58;;;;;;;0.32;0.32;;;27.70;95.30;;;;;;5043743;28;20017;-75
2023/09/15 11:37:24;;;;;;;0.40;0.40;;;27.60;94.90;;;;;;5061541;28;20073;-76
2023/09/15 11:39:50;;;;;;;0.13;0.13;;;27.30;95.00;;;;;;5042578;28;20115;-76
2023/09/15 11:42:16;;;;;;;1.67;1.20;;;27.10;95.40;;;;;;5043157;28;20197;-76
2023/09/15 11:44:43;;;;;;;0.40;0.40;;;27.10;95.30;;;;;;5060520;28;20213;-76
2023/09/15 11:47:11;;;;;;;0.20;0.20;;;27.00;95.40;;;;;;5042053;28;20087;-76
2023/09/15 11:49:37;;;;;;;1.55;0.85;;;27.00;95.60;;;;;;5043211;28;20067;-76
2023/09/15 11:52:05;;;;;;;0.00;0.00;;;27.10;95.50;;;;;;5061903;28;20032;-76
2023/09/15 11:54:31;;;;;;;0.40;0.38;;;27.10;95.20;;;;;;5043674;28;20387;-76
2023/09/15 11:56:57;;;;;;;0.00;0.00;;;28.80;95.50;;;;;;5061352;28;20020;-76
2023/09/15 11:59:24;;;;;;;0.63;0.15;;;27.00;95.00;;;;;;5060155;28;20075;-76
2023/09/15 12:01:54;;;;;;;0.00;0.00;;;28.30;95.60;;;;;;5042487;28;20013;-75
2023/09/15 12:04:20;;;;;;;0.28;0.28;;;27.10;95.30;;;;;;5041827;28;20086;-75
2023/09/15 12:06:46;;;;;;;1.02;0.95;;;27.10;95.50;;;;;;5041161;28;20113;-77
2023/09/15 12:09:14;;;;;;;0.10;0.10;;;26.90;95.20;;;;;;5041865;28;20351;-78
2023/09/15 12:11:43;;;;;;;1.27;1.13;;;26.90;94.50;;;;;;5060775;28;20194;-75
2023/09/15 12:14:14;;;;;;;0.03;0.03;;;26.90;94.80;;;;;;5045092;28;20031;-78
2023/09/15 12:16:45;;;;;;;0.05;0.05;;;26.70;95.30;;;;;;5044615;28;20032;-76
2023/09/15 12:19:11;;;;;;;0.65;0.65;;;26.60;95.20;;;;;;5044255;28;20040;-78
2023/09/15 12:21:37;;;;;;;0.00;0.00;;;26.60;95.30;;;;;;5043520;28;20020;-75
2023/09/15 12:24:11;;;;;;;0.00;0.00;;;26.70;96.00;;;;;;5068563;28;20297;-77
2023/09/15 12:26:39;;;;;;;0.03;0.03;;;26.80;95.30;;;;;;5033756;28;20104;-76
2023/09/15 12:29:04;;;;;;;0.00;0.00;;;26.80;96.50;;;;;;5070228;28;20321;-81
2023/09/15 12:31:44;;;;;;;0.00;0.00;;;26.70;97.00;;;;;;5061840;28;20231;-77
2023/09/15 12:34:19;;;;;;;1.27;1.17;;;26.30;97.40;;;;;;5044120;28;20079;-78
2023/09/15 12:36:51;;;;;;;0.20;0.17;;;26.10;97.40;;;;;;5061668;28;20317;-75
2023/09/15 12:39:18;;;;;;;0.25;0.25;;;26.30;97.70;;;;;;5043584;28;20118;-77
2023/09/15 12:41:43;;;;;;;0.32;0.32;;;23.80;97.40;;;;;;5061193;28;20513;-78
2023/09/15 12:44:17;;;;;;;0.65;0.65;;;26.50;98.30;;;;;;5079064;28;20086;-78
2023/09/15 12:46:44;;;;;;;0.10;0.10;;;28.20;98.60;;;;;;5068697;28;20515;-77
2023/09/15 12:49:14;;;;;;;0.00;0.00;;;26.50;98.30;;;;;;5042994;28;20465;-79
2023/09/15 12:51:40;;;;;;;2.08;0.55;;;26.40;98.10;;;;;;5044263;28;20332;-77